sensor_id;sensor_type;location;lat;lon;timestamp;pressure;altitude;pressure_sealevel;temperature;humidity
70127;BME280;57491;42.694;23.314;2022-12-13T00:01:29;94584.03;;;2.55;67.72
70127;BME280;57491;42.694;23.314;2022-12-13T00:03:57;94584.75;;;2.48;65.18
70127;BME280;57491;42.694;23.314;2022-12-13T00:06:24;94585.09;;;2.25;66.33
70127;BME280;57491;42.694;23.314;2022-12-13T00:08:51;94600.47;;;2.25;64.33
70127;BME280;57491;42.694;23.314;2022-12-13T00:11:19;94585.91;;;2.26;65.78
70127;BME280;57491;42.694;23.314;2022-12-13T00:13:48;94597.13;;;2.25;66.68
70127;BME280;57491;42.694;23.314;2022-12-13T00:16:17;94594.28;;;2.28;65.47
70127;BME280;57491;42.694;23.314;2022-12-13T00:18:48;94603.41;;;2.40;66.91
70127;BME280;57491;42.694;23.314;2022-12-13T00:21:17;94605.78;;;2.61;73.71
70127;BME280;57491;42.694;23.314;2022-12-13T00:23:45;94597.25;;;2.60;67.13
70127;BME280;57491;42.694;23.314;2022-12-13T00:26:14;94605.19;;;2.67;65.42
70127;BME280;57491;42.694;23.314;2022-12-13T00:28:42;94603.84;;;2.63;64.50
70127;BME280;57491;42.694;23.314;2022-12-13T00:31:11;94600.09;;;2.57;63.64
70127;BME280;57491;42.694;23.314;2022-12-13T00:33:38;94602.28;;;2.52;64.31
70127;BME280;57491;42.694;23.314;2022-12-13T00:36:06;94598.06;;;2.34;64.37
70127;BME280;57491;42.694;23.314;2022-12-13T00:38:33;94584.03;;;2.28;65.87
70127;BME280;57491;42.694;23.314;2022-12-13T00:41:09;94606.97;;;2.30;66.20
70127;BME280;57491;42.694;23.314;2022-12-13T00:43:36;94611.59;;;2.16;65.01
70127;BME280;57491;42.694;23.314;2022-12-13T00:46:03;94606.22;;;2.10;65.21
70127;BME280;57491;42.694;23.314;2022-12-13T00:48:32;94615.41;;;2.03;65.88
70127;BME280;57491;42.694;23.314;2022-12-13T00:50:59;94615.56;;;1.82;65.14
70127;BME280;57491;42.694;23.314;2022-12-13T00:53:26;94600.09;;;1.74;66.03
70127;BME280;57491;42.694;23.314;2022-12-13T00:55:53;94602.75;;;1.82;66.68
70127;BME280;57491;42.694;23.314;2022-12-13T00:58:20;94603.69;;;1.81;65.47
70127;BME280;57491;42.694;23.314;2022-12-13T01:00:47;94607.06;;;1.91;71.44
70127;BME280;57491;42.694;23.314;2022-12-13T01:03:14;94605.28;;;2.01;66.93
70127;BME280;57491;42.694;23.314;2022-12-13T01:05:51;94565.75;;;1.94;69.78
70127;BME280;57491;42.694;23.314;2022-12-13T01:08:18;94609.00;;;2.26;67.50
70127;BME280;57491;42.694;23.314;2022-12-13T01:10:46;94600.56;;;2.06;65.66
70127;BME280;57491;42.694;23.314;2022-12-13T01:13:13;94607.69;;;2.12;67.80
70127;BME280;57491;42.694;23.314;2022-12-13T01:15:41;94600.16;;;2.11;65.18
70127;BME280;57491;42.694;23.314;2022-12-13T01:18:08;94605.50;;;2.17;66.16
70127;BME280;57491;42.694;23.314;2022-12-13T01:20:35;94596.47;;;2.23;68.23
70127;BME280;57491;42.694;23.314;2022-12-13T01:23:04;94605.84;;;2.42;64.99
70127;BME280;57491;42.694;23.314;2022-12-13T01:25:32;94612.88;;;2.30;65.01
70127;BME280;57491;42.694;23.314;2022-12-13T01:27:59;94583.03;;;2.02;67.83
70127;BME280;57491;42.694;23.314;2022-12-13T01:30:26;94607.84;;;2.11;64.29
70127;BME280;57491;42.694;23.314;2022-12-13T01:32:55;94610.81;;;2.06;64.66
70127;BME280;57491;42.694;23.314;2022-12-13T01:35:22;94587.66;;;1.79;64.87
70127;BME280;57491;42.694;23.314;2022-12-13T01:37:48;94619.06;;;2.00;66.68
70127;BME280;57491;42.694;23.314;2022-12-13T01:40:17;94615.41;;;2.03;66.68
70127;BME280;57491;42.694;23.314;2022-12-13T01:42:44;94616.78;;;1.97;65.34
70127;BME280;57491;42.694;23.314;2022-12-13T01:45:20;94607.59;;;1.95;65.45
70127;BME280;57491;42.694;23.314;2022-12-13T01:47:50;94612.19;;;1.91;65.41
70127;BME280;57491;42.694;23.314;2022-12-13T01:50:22;94607.06;;;1.91;65.67
70127;BME280;57491;42.694;23.314;2022-12-13T01:52:53;94613.28;;;1.79;65.08
70127;BME280;57491;42.694;23.314;2022-12-13T01:55:24;94611.38;;;1.81;69.93
70127;BME280;57491;42.694;23.314;2022-12-13T01:57:54;94617.00;;;2.13;75.68
70127;BME280;57491;42.694;23.314;2022-12-13T02:00:24;94616.69;;;2.26;73.45
70127;BME280;57491;42.694;23.314;2022-12-13T02:02:53;94611.31;;;2.19;69.71
70127;BME280;57491;42.694;23.314;2022-12-13T02:05:26;94608.72;;;2.29;69.38
70127;BME280;57491;42.694;23.314;2022-12-13T02:07:55;94607.91;;;2.29;67.84
70127;BME280;57491;42.694;23.314;2022-12-13T02:10:24;94608.44;;;2.32;66.90
70127;BME280;57491;42.694;23.314;2022-12-13T02:12:53;94617.25;;;2.30;66.79
70127;BME280;57491;42.694;23.314;2022-12-13T02:15:21;94610.94;;;2.14;64.78
70127;BME280;57491;42.694;23.314;2022-12-13T02:18:01;94618.44;;;2.25;68.09
70127;BME280;57491;42.694;23.314;2022-12-13T02:20:49;94611.69;;;2.34;68.46
70127;BME280;57491;42.694;23.314;2022-12-13T02:23:35;94612.34;;;2.36;70.78
70127;BME280;57491;42.694;23.314;2022-12-13T02:26:26;94616.34;;;2.48;69.45
70127;BME280;57491;42.694;23.314;2022-12-13T02:29:13;94605.00;;;2.51;67.07
70127;BME280;57491;42.694;23.314;2022-12-13T02:31:51;94603.38;;;2.50;72.02
70127;BME280;57491;42.694;23.314;2022-12-13T02:34:21;94613.69;;;2.31;66.97
70127;BME280;57491;42.694;23.314;2022-12-13T02:36:55;94620.75;;;2.29;67.60
70127;BME280;57491;42.694;23.314;2022-12-13T02:39:31;94620.84;;;2.37;70.05
70127;BME280;57491;42.694;23.314;2022-12-13T02:42:03;94624.78;;;2.31;67.26
70127;BME280;57491;42.694;23.314;2022-12-13T02:44:34;94633.88;;;2.16;66.79
70127;BME280;57491;42.694;23.314;2022-12-13T02:47:07;94624.81;;;2.12;66.45
70127;BME280;57491;42.694;23.314;2022-12-13T02:49:39;94618.63;;;2.05;66.51
70127;BME280;57491;42.694;23.314;2022-12-13T02:52:08;94625.81;;;2.01;66.24
70127;BME280;57491;42.694;23.314;2022-12-13T02:54:36;94624.19;;;2.00;66.41
70127;BME280;57491;42.694;23.314;2022-12-13T02:57:03;94628.09;;;1.95;67.50
70127;BME280;57491;42.694;23.314;2022-12-13T02:59:33;94620.28;;;1.87;66.27
70127;BME280;57491;42.694;23.314;2022-12-13T03:02:11;94630.13;;;1.91;67.60
70127;BME280;57491;42.694;23.314;2022-12-13T03:04:49;94625.13;;;1.99;73.02
70127;BME280;57491;42.694;23.314;2022-12-13T03:07:51;94620.28;;;1.87;67.55
70127;BME280;57491;42.694;23.314;2022-12-13T03:10:30;94622.97;;;1.85;72.55
70127;BME280;57491;42.694;23.314;2022-12-13T03:13:01;94630.81;;;1.93;70.04
70127;BME280;57491;42.694;23.314;2022-12-13T03:15:54;94639.69;;;1.89;70.89
70127;BME280;57491;42.694;23.314;2022-12-13T03:18:26;94631.66;;;1.84;68.51
70127;BME280;57491;42.694;23.314;2022-12-13T03:20:56;94618.97;;;1.73;66.72
70127;BME280;57491;42.694;23.314;2022-12-13T03:23:24;94626.66;;;1.63;66.03
70127;BME280;57491;42.694;23.314;2022-12-13T03:25:53;94624.50;;;1.49;66.46
70127;BME280;57491;42.694;23.314;2022-12-13T03:28:21;94633.81;;;1.50;68.12
70127;BME280;57491;42.694;23.314;2022-12-13T03:30:49;94629.63;;;1.49;66.51
70127;BME280;57491;42.694;23.314;2022-12-13T03:33:16;94636.09;;;1.44;67.64
70127;BME280;57491;42.694;23.314;2022-12-13T03:35:44;94637.47;;;1.48;67.48
70127;BME280;57491;42.694;23.314;2022-12-13T03:38:13;94632.19;;;1.40;70.59
70127;BME280;57491;42.694;23.314;2022-12-13T03:40:40;94643.38;;;1.58;67.41
70127;BME280;57491;42.694;23.314;2022-12-13T03:43:07;94641.91;;;1.65;68.70
70127;BME280;57491;42.694;23.314;2022-12-13T03:45:35;94625.19;;;1.70;70.63
70127;BME280;57491;42.694;23.314;2022-12-13T03:48:02;94634.47;;;1.71;67.28
70127;BME280;57491;42.694;23.314;2022-12-13T03:50:29;94641.91;;;1.65;68.52
70127;BME280;57491;42.694;23.314;2022-12-13T03:53:01;94644.31;;;1.76;71.52
70127;BME280;57491;42.694;23.314;2022-12-13T03:55:28;94661.06;;;1.61;66.87
70127;BME280;57491;42.694;23.314;2022-12-13T03:57:55;94663.75;;;1.59;73.86
70127;BME280;57491;42.694;23.314;2022-12-13T04:00:22;94653.34;;;1.42;66.85
70127;BME280;57491;42.694;23.314;2022-12-13T04:02:49;94665.31;;;1.31;69.67
70127;BME280;57491;42.694;23.314;2022-12-13T04:05:16;94643.50;;;1.27;71.57
70127;BME280;57491;42.694;23.314;2022-12-13T04:07:44;94667.22;;;1.29;67.92
70127;BME280;57491;42.694;23.314;2022-12-13T04:10:12;94667.47;;;1.26;68.08
70127;BME280;57491;42.694;23.314;2022-12-13T04:12:39;94658.84;;;1.27;74.00
70127;BME280;57491;42.694;23.314;2022-12-13T04:15:23;94675.84;;;1.28;69.18
70127;BME280;57491;42.694;23.314;2022-12-13T04:17:51;94681.53;;;1.42;74.22
70127;BME280;57491;42.694;23.314;2022-12-13T04:20:18;94682.47;;;1.41;71.05
70127;BME280;57491;42.694;23.314;2022-12-13T04:22:45;94690.84;;;1.43;72.02
70127;BME280;57491;42.694;23.314;2022-12-13T04:25:13;94682.31;;;1.32;67.17
70127;BME280;57491;42.694;23.314;2022-12-13T04:27:40;94698.53;;;1.43;71.46
70127;BME280;57491;42.694;23.314;2022-12-13T04:30:11;94685.28;;;1.38;68.70
70127;BME280;57491;42.694;23.314;2022-12-13T04:32:38;94707.03;;;1.43;66.84
70127;BME280;57491;42.694;23.314;2022-12-13T04:35:05;94694.72;;;1.37;73.38
70127;BME280;57491;42.694;23.314;2022-12-13T04:37:32;94718.47;;;1.49;69.03
70127;BME280;57491;42.694;23.314;2022-12-13T04:39:59;94715.50;;;1.44;66.56
70127;BME280;57491;42.694;23.314;2022-12-13T04:42:28;94721.28;;;1.36;65.39
70127;BME280;57491;42.694;23.314;2022-12-13T04:44:56;94726.66;;;1.33;65.79
70127;BME280;57491;42.694;23.314;2022-12-13T04:47:23;94724.34;;;1.20;66.43
70127;BME280;57491;42.694;23.314;2022-12-13T04:49:50;94733.50;;;1.23;69.38
70127;BME280;57491;42.694;23.314;2022-12-13T04:52:17;94722.31;;;1.14;66.08
70127;BME280;57491;42.694;23.314;2022-12-13T04:54:44;94727.84;;;1.19;72.58
70127;BME280;57491;42.694;23.314;2022-12-13T04:57:11;94737.78;;;1.03;65.68
70127;BME280;57491;42.694;23.314;2022-12-13T04:59:39;94727.78;;;1.00;68.51
70127;BME280;57491;42.694;23.314;2022-12-13T05:02:07;94722.63;;;0.81;65.12
70127;BME280;57491;42.694;23.314;2022-12-13T05:04:35;94729.47;;;0.80;66.77
70127;BME280;57491;42.694;23.314;2022-12-13T05:07:02;94739.50;;;0.93;69.80
70127;BME280;57491;42.694;23.314;2022-12-13T05:09:30;94741.13;;;0.94;66.24
70127;BME280;57491;42.694;23.314;2022-12-13T05:11:57;94741.69;;;0.77;65.51
70127;BME280;57491;42.694;23.314;2022-12-13T05:14:24;94734.97;;;0.76;69.56
70127;BME280;57491;42.694;23.314;2022-12-13T05:16:52;94741.78;;;0.96;71.35
70127;BME280;57491;42.694;23.314;2022-12-13T05:19:19;94744.25;;;1.07;71.73
70127;BME280;57491;42.694;23.314;2022-12-13T05:21:47;94751.56;;;1.12;66.62
70127;BME280;57491;42.694;23.314;2022-12-13T05:24:14;94743.22;;;1.19;73.58
70127;BME280;57491;42.694;23.314;2022-12-13T05:26:41;94749.38;;;1.07;65.46
70127;BME280;57491;42.694;23.314;2022-12-13T05:29:08;94739.91;;;0.98;64.32
70127;BME280;57491;42.694;23.314;2022-12-13T05:31:36;94754.75;;;1.04;65.28
70127;BME280;57491;42.694;23.314;2022-12-13T05:34:04;94761.06;;;1.00;69.03
70127;BME280;57491;42.694;23.314;2022-12-13T05:36:31;94762.78;;;0.90;64.02
70127;BME280;57491;42.694;23.314;2022-12-13T05:38:58;94761.53;;;0.84;64.84
70127;BME280;57491;42.694;23.314;2022-12-13T05:41:26;94759.97;;;0.72;63.73
70127;BME280;57491;42.694;23.314;2022-12-13T05:43:55;94780.84;;;0.68;64.21
70127;BME280;57491;42.694;23.314;2022-12-13T05:46:23;94766.38;;;0.57;64.06
70127;BME280;57491;42.694;23.314;2022-12-13T05:48:50;94777.72;;;0.64;66.50
70127;BME280;57491;42.694;23.314;2022-12-13T05:51:18;94768.31;;;0.65;65.50
70127;BME280;57491;42.694;23.314;2022-12-13T05:53:45;94772.78;;;0.72;64.30
70127;BME280;57491;42.694;23.314;2022-12-13T05:56:12;94781.28;;;0.73;64.71
70127;BME280;57491;42.694;23.314;2022-12-13T05:58:39;94772.22;;;0.69;65.89
70127;BME280;57491;42.694;23.314;2022-12-13T06:01:08;94788.81;;;0.74;64.89
70127;BME280;57491;42.694;23.314;2022-12-13T06:03:35;94794.22;;;0.71;66.36
70127;BME280;57491;42.694;23.314;2022-12-13T06:06:03;94796.25;;;0.57;64.17
70127;BME280;57491;42.694;23.314;2022-12-13T06:08:32;94801.25;;;0.79;74.20
70127;BME280;57491;42.694;23.314;2022-12-13T06:11:00;94781.09;;;0.85;66.47
70127;BME280;57491;42.694;23.314;2022-12-13T06:13:28;94752.53;;;0.60;64.28
70127;BME280;57491;42.694;23.314;2022-12-13T06:16:00;94767.31;;;0.56;67.29
70127;BME280;57491;42.694;23.314;2022-12-13T06:18:29;94786.75;;;0.89;72.04
70127;BME280;57491;42.694;23.314;2022-12-13T06:20:57;94796.44;;;0.85;62.72
70127;BME280;57491;42.694;23.314;2022-12-13T06:23:25;94791.34;;;0.95;63.95
70127;BME280;57491;42.694;23.314;2022-12-13T06:25:53;94797.53;;;0.93;70.13
70127;BME280;57491;42.694;23.314;2022-12-13T06:28:20;94791.66;;;1.02;63.81
70127;BME280;57491;42.694;23.314;2022-12-13T06:30:47;94796.44;;;0.85;62.30
70127;BME280;57491;42.694;23.314;2022-12-13T06:33:17;94782.09;;;0.73;62.10
70127;BME280;57491;42.694;23.314;2022-12-13T06:35:45;94799.22;;;1.13;68.19
70127;BME280;57491;42.694;23.314;2022-12-13T06:38:12;94799.06;;;1.05;61.76
70127;BME280;57491;42.694;23.314;2022-12-13T06:40:39;94759.59;;;0.77;63.33
70127;BME280;57491;42.694;23.314;2022-12-13T06:43:08;94809.25;;;0.95;64.36
70127;BME280;57491;42.694;23.314;2022-12-13T06:45:37;94807.47;;;0.86;62.71
70127;BME280;57491;42.694;23.314;2022-12-13T06:48:05;94800.28;;;1.01;66.39
70127;BME280;57491;42.694;23.314;2022-12-13T06:50:32;94803.53;;;1.03;64.41
70127;BME280;57491;42.694;23.314;2022-12-13T06:52:59;94804.56;;;1.00;62.08
70127;BME280;57491;42.694;23.314;2022-12-13T06:55:26;94799.66;;;0.87;63.32
70127;BME280;57491;42.694;23.314;2022-12-13T06:57:54;94806.03;;;0.93;60.76
70127;BME280;57491;42.694;23.314;2022-12-13T07:00:23;94811.25;;;1.12;61.93
70127;BME280;57491;42.694;23.314;2022-12-13T07:02:52;94813.44;;;1.26;61.15
70127;BME280;57491;42.694;23.314;2022-12-13T07:05:19;94813.97;;;1.60;69.14
70127;BME280;57491;42.694;23.314;2022-12-13T07:07:46;94809.31;;;1.85;61.13
70127;BME280;57491;42.694;23.314;2022-12-13T07:10:14;94820.69;;;2.20;63.18
70127;BME280;57491;42.694;23.314;2022-12-13T07:12:41;94809.75;;;2.38;60.75
70127;BME280;57491;42.694;23.314;2022-12-13T07:15:09;94820.38;;;2.72;56.98
70127;BME280;57491;42.694;23.314;2022-12-13T07:17:37;94817.88;;;2.99;58.06
70127;BME280;57491;42.694;23.314;2022-12-13T07:20:06;94827.44;;;3.16;55.85
70127;BME280;57491;42.694;23.314;2022-12-13T07:22:35;94824.03;;;3.25;62.29
70127;BME280;57491;42.694;23.314;2022-12-13T07:25:03;94827.34;;;3.45;54.77
70127;BME280;57491;42.694;23.314;2022-12-13T07:27:31;94823.06;;;3.63;56.71
70127;BME280;57491;42.694;23.314;2022-12-13T07:29:58;94822.66;;;3.85;57.20
70127;BME280;57491;42.694;23.314;2022-12-13T07:32:26;94830.94;;;4.07;55.77
70127;BME280;57491;42.694;23.314;2022-12-13T07:34:54;94828.38;;;4.24;54.39
70127;BME280;57491;42.694;23.314;2022-12-13T07:37:21;94821.31;;;4.09;51.20
70127;BME280;57491;42.694;23.314;2022-12-13T07:39:48;94828.16;;;4.18;54.72
70127;BME280;57491;42.694;23.314;2022-12-13T07:42:15;94835.97;;;4.43;55.68
70127;BME280;57491;42.694;23.314;2022-12-13T07:44:43;94834.31;;;4.60;54.38
70127;BME280;57491;42.694;23.314;2022-12-13T07:47:10;94818.50;;;4.55;50.81
70127;BME280;57491;42.694;23.314;2022-12-13T07:49:37;94831.16;;;4.66;50.58
70127;BME280;57491;42.694;23.314;2022-12-13T07:52:10;94840.06;;;4.72;50.27
70127;BME280;57491;42.694;23.314;2022-12-13T07:54:37;94824.44;;;4.73;51.05
70127;BME280;57491;42.694;23.314;2022-12-13T07:57:04;94845.75;;;5.01;53.33
70127;BME280;57491;42.694;23.314;2022-12-13T07:59:32;94849.03;;;5.37;51.12
70127;BME280;57491;42.694;23.314;2022-12-13T08:01:59;94840.69;;;5.77;50.24
70127;BME280;57491;42.694;23.314;2022-12-13T08:04:26;94845.63;;;5.96;55.19
70127;BME280;57491;42.694;23.314;2022-12-13T08:06:53;94843.97;;;6.29;49.28
70127;BME280;57491;42.694;23.314;2022-12-13T08:09:21;94848.03;;;6.48;52.23
70127;BME280;57491;42.694;23.314;2022-12-13T08:11:49;94845.06;;;6.26;45.94
70127;BME280;57491;42.694;23.314;2022-12-13T08:14:16;94854.78;;;5.91;46.35
70127;BME280;57491;42.694;23.314;2022-12-13T08:16:43;94846.44;;;5.63;47.74
70127;BME280;57491;42.694;23.314;2022-12-13T08:19:10;94861.94;;;5.63;47.71
70127;BME280;57491;42.694;23.314;2022-12-13T08:21:38;94855.31;;;5.68;49.53
70127;BME280;57491;42.694;23.314;2022-12-13T08:24:06;94855.19;;;5.70;47.66
70127;BME280;57491;42.694;23.314;2022-12-13T08:26:35;94847.38;;;5.88;52.56
70127;BME280;57491;42.694;23.314;2022-12-13T08:29:02;94869.09;;;6.19;47.37
70127;BME280;57491;42.694;23.314;2022-12-13T08:31:30;94857.72;;;6.54;46.94
70127;BME280;57491;42.694;23.314;2022-12-13T08:33:57;94855.31;;;6.68;48.29
70127;BME280;57491;42.694;23.314;2022-12-13T08:36:24;94834.94;;;7.22;49.27
70127;BME280;57491;42.694;23.314;2022-12-13T08:38:54;94835.19;;;7.43;41.94
70127;BME280;57491;42.694;23.314;2022-12-13T08:41:21;94830.72;;;7.37;42.23
70127;BME280;57491;42.694;23.314;2022-12-13T08:43:50;94813.22;;;7.55;41.23
70127;BME280;57491;42.694;23.314;2022-12-13T08:46:17;94831.44;;;8.40;41.01
70127;BME280;57491;42.694;23.314;2022-12-13T08:48:44;94829.66;;;8.86;39.19
70127;BME280;57491;42.694;23.314;2022-12-13T08:51:13;94826.66;;;9.34;40.26
70127;BME280;57491;42.694;23.314;2022-12-13T08:53:42;94814.69;;;10.13;38.55
70127;BME280;57491;42.694;23.314;2022-12-13T08:56:10;94815.38;;;10.94;37.20
70127;BME280;57491;42.694;23.314;2022-12-13T08:58:38;94803.38;;;11.83;36.69
70127;BME280;57491;42.694;23.314;2022-12-13T09:01:07;94792.06;;;12.84;35.67
70127;BME280;57491;42.694;23.314;2022-12-13T09:03:34;94802.50;;;13.63;31.32
70127;BME280;57491;42.694;23.314;2022-12-13T09:06:06;94802.09;;;14.23;33.58
70127;BME280;57491;42.694;23.314;2022-12-13T09:08:33;94784.75;;;14.80;29.32
70127;BME280;57491;42.694;23.314;2022-12-13T09:11:01;94802.09;;;14.74;30.49
70127;BME280;57491;42.694;23.314;2022-12-13T09:13:28;94793.31;;;15.43;28.92
70127;BME280;57491;42.694;23.314;2022-12-13T09:15:55;94790.44;;;15.51;27.57
70127;BME280;57491;42.694;23.314;2022-12-13T09:18:25;94789.31;;;16.02;28.01
70127;BME280;57491;42.694;23.314;2022-12-13T09:20:52;94790.09;;;16.39;28.94
70127;BME280;57491;42.694;23.314;2022-12-13T09:23:19;94784.63;;;17.12;27.63
70127;BME280;57491;42.694;23.314;2022-12-13T09:25:51;94771.91;;;17.62;25.15
70127;BME280;57491;42.694;23.314;2022-12-13T09:28:19;94770.25;;;18.07;24.37
70127;BME280;57491;42.694;23.314;2022-12-13T09:30:46;94768.25;;;17.63;22.53
70127;BME280;57491;42.694;23.314;2022-12-13T09:33:14;94766.25;;;17.00;23.42
70127;BME280;57491;42.694;23.314;2022-12-13T09:35:42;94773.59;;;16.80;22.94
70127;BME280;57491;42.694;23.314;2022-12-13T09:38:09;94772.38;;;16.94;26.05
70127;BME280;57491;42.694;23.314;2022-12-13T09:40:37;94768.91;;;17.93;23.78
70127;BME280;57491;42.694;23.314;2022-12-13T09:43:05;94763.22;;;18.64;22.56
70127;BME280;57491;42.694;23.314;2022-12-13T09:45:34;94747.56;;;19.03;20.80
70127;BME280;57491;42.694;23.314;2022-12-13T09:48:04;94756.50;;;19.02;21.06
70127;BME280;57491;42.694;23.314;2022-12-13T09:50:34;94753.84;;;19.18;20.77
70127;BME280;57491;42.694;23.314;2022-12-13T09:53:04;94747.88;;;19.56;21.69
70127;BME280;57491;42.694;23.314;2022-12-13T09:55:37;94758.03;;;20.25;20.04
70127;BME280;57491;42.694;23.314;2022-12-13T09:58:10;94768.94;;;21.09;19.28
70127;BME280;57491;42.694;23.314;2022-12-13T10:00:40;94765.41;;;21.57;19.53
70127;BME280;57491;42.694;23.314;2022-12-13T10:03:12;94767.69;;;21.85;18.43
70127;BME280;57491;42.694;23.314;2022-12-13T10:05:43;94754.03;;;21.98;18.52
70127;BME280;57491;42.694;23.314;2022-12-13T10:08:14;94744.66;;;21.86;18.74
70127;BME280;57491;42.694;23.314;2022-12-13T10:10:42;94746.88;;;22.66;17.73
70127;BME280;57491;42.694;23.314;2022-12-13T10:13:12;94750.13;;;22.98;16.78
70127;BME280;57491;42.694;23.314;2022-12-13T10:15:42;94756.81;;;23.51;16.58
70127;BME280;57491;42.694;23.314;2022-12-13T10:18:13;94751.16;;;24.04;16.21
70127;BME280;57491;42.694;23.314;2022-12-13T10:20:48;94745.53;;;24.10;16.45
70127;BME280;57491;42.694;23.314;2022-12-13T10:23:17;94739.19;;;24.16;17.12
70127;BME280;57491;42.694;23.314;2022-12-13T10:25:46;94732.44;;;25.27;14.23
70127;BME280;57491;42.694;23.314;2022-12-13T10:28:16;94721.88;;;24.73;14.58
70127;BME280;57491;42.694;23.314;2022-12-13T10:30:44;94714.06;;;24.48;14.63
70127;BME280;57491;42.694;23.314;2022-12-13T10:33:21;94707.88;;;25.06;15.05
70127;BME280;57491;42.694;23.314;2022-12-13T10:36:05;94712.09;;;25.75;14.95
70127;BME280;57491;42.694;23.314;2022-12-13T10:38:36;94713.59;;;25.52;15.40
70127;BME280;57491;42.694;23.314;2022-12-13T10:41:29;94702.41;;;25.84;13.80
70127;BME280;57491;42.694;23.314;2022-12-13T10:44:08;94697.88;;;27.07;13.06
70127;BME280;57491;42.694;23.314;2022-12-13T10:46:40;94693.50;;;27.30;13.22
70127;BME280;57491;42.694;23.314;2022-12-13T10:49:14;94693.94;;;26.86;12.74
70127;BME280;57491;42.694;23.314;2022-12-13T10:51:43;94686.00;;;25.43;14.36
70127;BME280;57491;42.694;23.314;2022-12-13T10:54:15;94670.50;;;23.79;15.14
70127;BME280;57491;42.694;23.314;2022-12-13T10:56:45;94676.72;;;23.14;17.15
70127;BME280;57491;42.694;23.314;2022-12-13T10:59:24;94689.06;;;23.84;16.17
70127;BME280;57491;42.694;23.314;2022-12-13T11:01:52;94680.72;;;25.67;14.10
70127;BME280;57491;42.694;23.314;2022-12-13T11:04:22;94683.97;;;26.73;13.86
70127;BME280;57491;42.694;23.314;2022-12-13T11:06:50;94680.88;;;26.47;13.28
70127;BME280;57491;42.694;23.314;2022-12-13T11:09:24;94676.13;;;28.33;12.04
70127;BME280;57491;42.694;23.314;2022-12-13T11:11:55;94669.06;;;28.51;11.72
70127;BME280;57491;42.694;23.314;2022-12-13T11:14:25;94667.81;;;28.07;12.18
70127;BME280;57491;42.694;23.314;2022-12-13T11:16:55;94667.13;;;26.77;12.45
70127;BME280;57491;42.694;23.314;2022-12-13T11:19:28;94666.38;;;27.09;13.60
70127;BME280;57491;42.694;23.314;2022-12-13T11:21:59;94668.00;;;27.70;11.88
70127;BME280;57491;42.694;23.314;2022-12-13T11:24:34;94658.13;;;27.98;11.96
70127;BME280;57491;42.694;23.314;2022-12-13T11:27:14;94657.56;;;28.64;11.23
70127;BME280;57491;42.694;23.314;2022-12-13T11:30:09;94654.41;;;28.62;10.80
70127;BME280;57491;42.694;23.314;2022-12-13T11:32:48;94652.03;;;28.60;11.29
70127;BME280;57491;42.694;23.314;2022-12-13T11:35:24;94666.31;;;28.92;11.06
70127;BME280;57491;42.694;23.314;2022-12-13T11:37:56;94667.38;;;28.68;12.15
70127;BME280;57491;42.694;23.314;2022-12-13T11:40:36;94671.38;;;28.93;10.64
70127;BME280;57491;42.694;23.314;2022-12-13T11:43:11;94665.16;;;29.51;10.84
70127;BME280;57491;42.694;23.314;2022-12-13T11:45:44;94660.56;;;30.22;9.94
70127;BME280;57491;42.694;23.314;2022-12-13T11:48:17;94657.88;;;30.22;10.38
70127;BME280;57491;42.694;23.314;2022-12-13T11:50:48;94664.00;;;30.53;10.36
70127;BME280;57491;42.694;23.314;2022-12-13T11:53:21;94652.44;;;29.56;11.38
70127;BME280;57491;42.694;23.314;2022-12-13T11:55:58;94652.94;;;30.63;10.05
70127;BME280;57491;42.694;23.314;2022-12-13T11:58:34;94655.06;;;29.87;10.51
70127;BME280;57491;42.694;23.314;2022-12-13T12:01:08;94644.56;;;28.35;10.91
70127;BME280;57491;42.694;23.314;2022-12-13T12:03:42;94647.22;;;28.85;11.27
70127;BME280;57491;42.694;23.314;2022-12-13T12:06:16;94638.19;;;29.47;11.64
70127;BME280;57491;42.694;23.314;2022-12-13T12:08:52;94630.72;;;29.66;10.47
70127;BME280;57491;42.694;23.314;2022-12-13T12:11:26;94633.97;;;28.66;11.47
70127;BME280;57491;42.694;23.314;2022-12-13T12:13:58;94628.34;;;27.77;12.21
70127;BME280;57491;42.694;23.314;2022-12-13T12:16:34;94637.84;;;28.24;12.18
70127;BME280;57491;42.694;23.314;2022-12-13T12:19:10;94637.06;;;28.95;11.46
70127;BME280;57491;42.694;23.314;2022-12-13T12:21:53;94635.22;;;29.26;11.59
70127;BME280;57491;42.694;23.314;2022-12-13T12:24:33;94629.94;;;29.35;10.72
70127;BME280;57491;42.694;23.314;2022-12-13T12:27:16;94627.47;;;29.47;11.11
70127;BME280;57491;42.694;23.314;2022-12-13T12:30:00;94625.44;;;28.28;11.53
70127;BME280;57491;42.694;23.314;2022-12-13T12:32:32;94637.81;;;27.42;12.42
70127;BME280;57491;42.694;23.314;2022-12-13T12:35:38;94639.13;;;27.26;12.52
70127;BME280;57491;42.694;23.314;2022-12-13T12:38:31;94641.44;;;27.32;12.00
70127;BME280;57491;42.694;23.314;2022-12-13T12:41:19;94633.47;;;26.25;12.60
70127;BME280;57491;42.694;23.314;2022-12-13T12:43:55;94634.66;;;25.14;13.10
70127;BME280;57491;42.694;23.314;2022-12-13T12:46:36;94648.47;;;24.77;13.61
70127;BME280;57491;42.694;23.314;2022-12-13T12:49:17;94654.06;;;23.72;14.58
70127;BME280;57491;42.694;23.314;2022-12-13T12:51:58;94650.09;;;23.60;14.84
70127;BME280;57491;42.694;23.314;2022-12-13T12:54:39;94655.50;;;23.09;15.17
70127;BME280;57491;42.694;23.314;2022-12-13T12:57:14;94663.88;;;22.40;16.40
70127;BME280;57491;42.694;23.314;2022-12-13T12:59:56;94654.16;;;23.22;16.46
70127;BME280;57491;42.694;23.314;2022-12-13T13:02:33;94653.03;;;23.58;15.42
70127;BME280;57491;42.694;23.314;2022-12-13T13:05:12;94638.25;;;23.11;15.87
70127;BME280;57491;42.694;23.314;2022-12-13T13:07:44;94651.91;;;22.12;16.63
70127;BME280;57491;42.694;23.314;2022-12-13T13:10:13;94663.03;;;21.62;16.95
70127;BME280;57491;42.694;23.314;2022-12-13T13:12:42;94674.69;;;21.66;17.44
70127;BME280;57491;42.694;23.314;2022-12-13T13:18:47;94683.91;;;19.28;18.89